Time,TemperatureF,DewpointF,PressureIn,WindDirection,WindDirectionDegrees,WindSpeedMPH,WindSpeedGustMPH,Humidity,HourlyPrecipIn,Conditions,Clouds,dailyrainin,SoftwareType,DateUTC
2013-09-01 00:01:00,74.9,67.2,29.83,West,268,0.0,0.0,77,0.00,,---,0.00,VWS V14.01,2013-09-01 07:01:00,
2013-09-01 00:11:00,74.9,67.2,29.83,West,268,0.0,0.0,77,0.00,,---,0.00,VWS V14.01,2013-09-01 07:11:00,
2013-09-01 00:16:00,74.9,67.2,29.83,West,268,0.0,0.0,77,0.00,,---,0.00,VWS V14.01,2013-09-01 07:16:00,
2013-09-01 00:26:00,74.7,67.0,29.83,West,268,0.0,0.0,77,0.00,,---,0.00,VWS V14.01,2013-09-01 07:26:00,
2013-09-01 00:31:00,74.7,67.0,29.83,West,268,0.0,0.0,77,0.00,,---,0.00,VWS V14.01,2013-09-01 07:31:00,
2013-09-01 00:41:00,74.7,67.0,29.83,West,268,0.0,0.0,77,0.00,,---,0.00,VWS V14.01,2013-09-01 07:41:00,
2013-09-01 00:51:00,74.6,67.3,29.83,West,268,0.0,0.0,78,0.00,,---,0.00,VWS V14.01,2013-09-01 07:51:00,
2013-09-01 00:56:00,74.6,67.3,29.83,West,268,0.0,0.0,78,0.00,,---,0.00,VWS V14.01,2013-09-01 07:56:00,
2013-09-01 01:01:00,74.4,67.1,29.83,West,268,0.0,0.0,78,0.00,,---,0.00,VWS V14.01,2013-09-01 08:01:00,
2013-09-01 01:11:00,74.2,66.9,29.83,West,268,0.0,0.0,78,0.00,,---,0.00,VWS V14.01,2013-09-01 08:11:00,
2013-09-01 01:21:00,74.2,66.9,29.82,West,268,0.0,0.0,78,0.00,,---,0.00,VWS V14.01,2013-09-01 08:21:00,
2013-09-01 01:26:00,74.0,66.7,29.82,West,268,0.0,0.0,78,0.00,,---,0.00,VWS V14.01,2013-09-01 08:26:00,
2013-09-01 01:31:00,74.0,66.7,29.82,West,268,0.0,0.0,78,0.00,,---,0.00,VWS V14.01,2013-09-01 08:31:00,
2013-09-01 01:41:00,73.9,66.6,29.82,West,268,0.0,0.0,78,0.00,,---,0.00,VWS V14.01,2013-09-01 08:41:00,
2013-09-01 01:46:00,73.9,66.6,29.82,West,268,0.0,0.0,78,0.00,,---,0.00,VWS V14.01,2013-09-01 08:46:00,
2013-09-01 01:51:00,73.7,66.4,29.82,West,268,0.0,0.0,78,0.00,,---,0.00,VWS V14.01,2013-09-01 08:51:00,
2013-09-01 01:56:00,73.7,66.4,29.82,West,268,0.0,0.0,78,0.00,,---,0.00,VWS V14.01,2013-09-01 08:56:00,
2013-09-01 02:06:00,73.5,66.2,29.81,West,268,0.0,0.0,78,0.00,,---,0.00,VWS V14.01,2013-09-01 09:06:00,
2013-09-01 02:11:00,73.3,66.4,29.81,West,268,0.0,0.0,79,0.00,,---,0.00,VWS V14.01,2013-09-01 09:11:00,
2013-09-01 02:16:00,73.2,66.3,29.81,West,268,0.0,0.0,79,0.00,,---,0.00,VWS V14.01,2013-09-01 09:16:00,
2013-09-01 02:21:00,73.2,66.3,29.81,West,268,0.0,0.0,79,0.00,,---,0.00,VWS V14.01,2013-09-01 09:21:00,
2013-09-01 02:26:00,73.2,66.3,29.81,West,268,0.0,0.0,79,0.00,,---,0.00,VWS V14.01,2013-09-01 09:26:00,
2013-09-01 02:36:00,73.0,66.1,29.81,West,268,0.0,0.0,79,0.00,,---,0.00,VWS V14.01,2013-09-01 09:36:00,
2013-09-01 02:41:00,73.0,66.1,29.81,West,268,0.0,0.0,79,0.00,,---,0.00,VWS V14.01,2013-09-01 09:41:00,
2013-09-01 02:51:00,72.8,65.9,29.81,West,268,0.0,0.0,79,0.00,,---,0.00,VWS V14.01,2013-09-01 09:51:00,
2013-09-01 02:56:00,72.8,65.9,29.81,West,268,0.0,0.0,79,0.00,,---,0.00,VWS V14.01,2013-09-01 09:56:00,
2013-09-01 03:01:00,72.8,65.9,29.81,West,268,0.0,0.0,79,0.00,,---,0.00,VWS V14.01,2013-09-01 10:01:00,
2013-09-01 03:06:00,72.7,66.2,29.81,West,268,0.0,0.0,80,0.00,,---,0.00,VWS V14.01,2013-09-01 10:06:00,
2013-09-01 03:16:00,72.7,66.2,29.80,West,268,0.0,0.0,80,0.00,,---,0.00,VWS V14.01,2013-09-01 10:16:00,
2013-09-01 03:26:00,72.5,66.0,29.80,West,268,0.0,0.0,80,0.00,,---,0.00,VWS V14.01,2013-09-01 10:26:00,
2013-09-01 03:36:00,72.3,66.2,29.80,West,268,0.0,0.0,81,0.00,,---,0.00,VWS V14.01,2013-09-01 10:36:00,
2013-09-01 03:41:00,72.3,66.2,29.80,West,268,0.0,0.0,81,0.00,,---,0.00,VWS V14.01,2013-09-01 10:41:00,
2013-09-01 03:51:00,72.0,65.9,29.80,West,268,0.0,0.0,81,0.00,,---,0.00,VWS V14.01,2013-09-01 10:51:00,
2013-09-01 03:56:00,72.0,65.9,29.80,West,268,0.0,0.0,81,0.00,,---,0.00,VWS V14.01,2013-09-01 10:56:00,
2013-09-01 04:01:00,71.8,65.7,29.79,West,268,0.0,0.0,81,0.00,,---,0.00,VWS V14.01,2013-09-01 11:01:00,
2013-09-01 04:06:00,71.8,65.7,29.79,West,268,0.0,0.0,81,0.00,,---,0.00,VWS V14.01,2013-09-01 11:06:00,
2013-09-01 04:11:00,71.8,65.7,29.79,West,268,0.0,0.0,81,0.00,,---,0.00,VWS V14.01,2013-09-01 11:11:00,
2013-09-01 04:16:00,71.6,65.5,29.80,West,268,0.0,0.0,81,0.00,,---,0.00,VWS V14.01,2013-09-01 11:16:00,
2013-09-01 04:21:00,71.6,65.5,29.80,West,268,0.0,0.0,81,0.00,,---,0.00,VWS V14.01,2013-09-01 11:21:00,
2013-09-01 04:26:00,71.5,65.4,29.80,West,268,0.0,0.0,81,0.00,,---,0.00,VWS V14.01,2013-09-01 11:26:00,
2013-09-01 04:36:00,71.5,65.7,29.80,West,268,0.0,0.0,82,0.00,,---,0.00,VWS V14.01,2013-09-01 11:36:00,
2013-09-01 04:41:00,71.5,65.7,29.80,West,268,0.0,0.0,82,0.00,,---,0.00,VWS V14.01,2013-09-01 11:41:00,
2013-09-01 04:46:00,71.3,65.5,29.80,West,268,0.0,0.0,82,0.00,,---,0.00,VWS V14.01,2013-09-01 11:46:00,
2013-09-01 04:56:00,71.3,65.5,29.80,West,268,0.0,0.0,82,0.00,,---,0.00,VWS V14.01,2013-09-01 11:56:00,
2013-09-01 05:06:00,71.3,65.5,29.81,West,268,0.0,0.0,82,0.00,,---,0.00,VWS V14.01,2013-09-01 12:06:00,
2013-09-01 05:11:00,71.1,65.3,29.81,West,268,0.0,0.0,82,0.00,,---,0.00,VWS V14.01,2013-09-01 12:11:00,
2013-09-01 05:16:00,71.1,65.3,29.81,West,268,0.0,0.0,82,0.00,,---,0.00,VWS V14.01,2013-09-01 12:16:00,
2013-09-01 05:21:00,71.3,65.9,29.81,West,268,0.0,0.0,83,0.00,,---,0.00,VWS V14.01,2013-09-01 12:21:00,
2013-09-01 05:26:00,71.1,65.7,29.81,West,268,0.0,0.0,83,0.00,,---,0.00,VWS V14.01,2013-09-01 12:26:00,
2013-09-01 05:31:00,71.1,65.7,29.81,West,268,0.0,0.0,83,0.00,,---,0.00,VWS V14.01,2013-09-01 12:31:00,
2013-09-01 05:41:00,70.9,65.5,29.81,West,268,0.0,0.0,83,0.00,,---,0.00,VWS V14.01,2013-09-01 12:41:00,
2013-09-01 05:46:00,70.9,65.5,29.81,West,268,0.0,0.0,83,0.00,,---,0.00,VWS V14.01,2013-09-01 12:46:00,
2013-09-01 05:56:00,70.8,65.4,29.81,West,268,0.0,0.0,83,0.00,,---,0.00,VWS V14.01,2013-09-01 12:56:00,
2013-09-01 06:06:00,70.8,65.4,29.81,West,268,0.0,0.0,83,0.00,,---,0.00,VWS V14.01,2013-09-01 13:06:00,
2013-09-01 06:11:00,70.8,65.4,29.81,West,268,0.0,0.0,83,0.00,,---,0.00,VWS V14.01,2013-09-01 13:11:00,
2013-09-01 06:16:00,70.8,65.4,29.82,West,268,0.0,0.0,83,0.00,,---,0.00,VWS V14.01,2013-09-01 13:16:00,
2013-09-01 06:21:00,70.8,65.7,29.82,West,268,0.0,0.0,84,0.00,,---,0.00,VWS V14.01,2013-09-01 13:21:00,
2013-09-01 06:31:00,70.6,65.5,29.82,West,268,0.0,0.0,84,0.00,,---,0.00,VWS V14.01,2013-09-01 13:31:00,
2013-09-01 06:41:00,70.6,65.5,29.82,West,268,0.0,0.0,84,0.00,,---,0.00,VWS V14.01,2013-09-01 13:41:00,
2013-09-01 06:46:00,70.6,65.5,29.83,West,268,0.0,0.0,84,0.00,,---,0.00,VWS V14.01,2013-09-01 13:46:00,
2013-09-01 06:51:00,70.6,65.5,29.83,West,268,0.0,0.0,84,0.00,,---,0.00,VWS V14.01,2013-09-01 13:51:00,
2013-09-01 06:56:00,70.6,65.5,29.83,West,268,0.0,0.0,84,0.00,,---,0.00,VWS V14.01,2013-09-01 13:56:00,
2013-09-01 07:01:00,70.6,65.5,29.82,West,268,0.0,0.0,84,0.00,,---,0.00,VWS V14.01,2013-09-01 14:01:00,
2013-09-01 07:06:00,70.6,65.5,29.82,West,268,0.0,0.0,84,0.00,,---,0.00,VWS V14.01,2013-09-01 14:06:00,
2013-09-01 07:11:00,70.6,65.9,29.82,West,268,0.0,0.0,85,0.00,,---,0.00,VWS V14.01,2013-09-01 14:11:00,
2013-09-01 07:16:00,70.6,65.9,29.83,West,268,0.0,0.0,85,0.00,,---,0.00,VWS V14.01,2013-09-01 14:16:00,
2013-09-01 07:21:00,70.6,65.9,29.83,West,268,0.0,0.0,85,0.00,,---,0.00,VWS V14.01,2013-09-01 14:21:00,
2013-09-01 07:26:00,70.4,65.7,29.83,West,268,0.0,0.0,85,0.00,,---,0.00,VWS V14.01,2013-09-01 14:26:00,
2013-09-01 07:31:00,70.4,65.7,29.83,West,268,0.0,0.0,85,0.00,,---,0.00,VWS V14.01,2013-09-01 14:31:00,
2013-09-01 07:36:00,70.4,65.7,29.83,West,268,0.0,0.0,85,0.00,,---,0.00,VWS V14.01,2013-09-01 14:36:00,
2013-09-01 07:41:00,70.6,65.9,29.83,West,268,0.0,0.0,85,0.00,,---,0.00,VWS V14.01,2013-09-01 14:41:00,
2013-09-01 07:51:00,70.8,66.1,29.84,West,268,0.0,0.0,85,0.00,,---,0.00,VWS V14.01,2013-09-01 14:51:00,
2013-09-01 07:56:00,70.9,66.2,29.84,West,268,0.0,0.0,85,0.00,,---,0.00,VWS V14.01,2013-09-01 14:56:00,
2013-09-01 08:01:00,71.1,66.4,29.84,West,268,0.0,0.0,85,0.00,,---,0.00,VWS V14.01,2013-09-01 15:01:00,
2013-09-01 08:11:00,71.5,66.4,29.84,WSW,256,0.0,0.0,84,0.00,,---,0.00,VWS V14.01,2013-09-01 15:11:00,
2013-09-01 08:16:00,72.1,66.7,29.84,NNW,328,0.0,0.0,83,0.00,,---,0.00,VWS V14.01,2013-09-01 15:16:00,
2013-09-01 08:26:00,72.8,66.3,29.84,NNW,328,0.0,0.0,80,0.00,,---,0.00,VWS V14.01,2013-09-01 15:26:00,
2013-09-01 08:31:00,73.3,66.8,29.84,NW,326,0.0,0.0,80,0.00,,---,0.00,VWS V14.01,2013-09-01 15:31:00,
2013-09-01 08:36:00,73.9,67.0,29.84,NNW,328,0.0,0.0,79,0.00,,---,0.00,VWS V14.01,2013-09-01 15:36:00,
2013-09-01 08:41:00,74.4,67.1,29.84,NNW,328,0.0,0.0,78,0.00,,---,0.00,VWS V14.01,2013-09-01 15:41:00,
2013-09-01 08:51:00,74.9,66.8,29.83,NNW,328,0.0,0.0,76,0.00,,---,0.00,VWS V14.01,2013-09-01 15:51:00,
2013-09-01 08:56:00,75.1,67.0,29.83,NNW,328,0.0,0.0,76,0.00,,---,0.00,VWS V14.01,2013-09-01 15:56:00,
2013-09-01 09:06:00,76.0,67.1,29.83,WSW,241,0.0,0.0,74,0.00,,---,0.00,VWS V14.01,2013-09-01 16:06:00,
2013-09-01 09:16:00,77.6,67.9,29.83,WSW,241,0.0,0.0,72,0.00,,---,0.00,VWS V14.01,2013-09-01 16:16:00,
2013-09-01 09:21:00,77.7,68.0,29.83,WSW,241,0.0,0.0,72,0.00,,---,0.00,VWS V14.01,2013-09-01 16:21:00,
2013-09-01 09:26:00,78.6,68.4,29.83,WSW,241,0.0,0.0,71,0.00,,---,0.00,VWS V14.01,2013-09-01 16:26:00,
2013-09-01 09:31:00,78.6,68.4,29.83,South,191,0.0,0.0,71,0.00,,---,0.00,VWS V14.01,2013-09-01 16:31:00,
2013-09-01 09:41:00,80.5,69.4,29.83,South,175,0.0,0.0,69,0.00,,---,0.00,VWS V14.01,2013-09-01 16:41:00,
2013-09-01 09:46:00,80.5,69.0,29.83,SSE,160,0.0,0.0,68,0.00,,---,0.00,VWS V14.01,2013-09-01 16:46:00,
2013-09-01 09:51:00,80.9,69.4,29.83,SSW,212,0.0,0.0,68,0.00,,---,0.00,VWS V14.01,2013-09-01 16:51:00,
2013-09-01 09:56:00,80.3,69.2,29.83,SSE,167,0.0,0.0,69,0.00,,---,0.00,VWS V14.01,2013-09-01 16:56:00,
2013-09-01 10:01:00,80.1,69.0,29.84,South,191,0.0,0.0,69,0.00,,---,0.00,VWS V14.01,2013-09-01 17:01:00,
2013-09-01 10:06:00,79.8,69.2,29.84,SW,219,0.0,0.0,70,0.00,,---,0.00,VWS V14.01,2013-09-01 17:06:00,
2013-09-01 10:16:00,79.6,69.0,29.84,West,263,0.0,0.0,70,0.00,,---,0.00,VWS V14.01,2013-09-01 17:16:00,
2013-09-01 10:21:00,79.6,69.4,29.84,West,264,0.0,0.0,71,0.00,,---,0.00,VWS V14.01,2013-09-01 17:21:00,
2013-09-01 10:31:00,80.1,69.0,29.84,SW,232,0.0,0.0,69,0.00,,---,0.00,VWS V14.01,2013-09-01 17:31:00,
2013-09-01 10:36:00,80.3,69.2,29.84,SW,232,0.0,0.0,69,0.00,,---,0.00,VWS V14.01,2013-09-01 17:36:00,
2013-09-01 10:41:00,80.3,68.8,29.84,SW,233,0.0,0.0,68,0.00,,---,0.00,VWS V14.01,2013-09-01 17:41:00,
2013-09-01 10:46:00,80.9,69.4,29.84,SSW,196,0.0,0.0,68,0.00,,---,0.00,VWS V14.01,2013-09-01 17:46:00,
2013-09-01 10:51:00,81.2,69.2,29.84,SW,223,0.0,0.0,67,0.00,,---,0.00,VWS V14.01,2013-09-01 17:51:00,
2013-09-01 11:01:00,83.0,70.9,29.84,South,185,0.0,0.0,67,0.00,,---,0.00,VWS V14.01,2013-09-01 18:01:00,
2013-09-01 11:06:00,83.2,70.2,29.84,WSW,247,0.0,0.0,65,0.00,,---,0.00,VWS V14.01,2013-09-01 18:06:00,
2013-09-01 11:11:00,84.0,70.1,29.84,WSW,239,0.0,0.0,63,0.00,,---,0.00,VWS V14.01,2013-09-01 18:11:00,
2013-09-01 11:21:00,83.6,70.1,29.83,SW,229,0.0,1.0,64,0.00,,---,0.00,VWS V14.01,2013-09-01 18:21:00,
2013-09-01 11:26:00,83.2,69.8,29.83,WSW,246,0.0,2.0,64,0.00,,---,0.00,VWS V14.01,2013-09-01 18:26:00,
2013-09-01 11:31:00,83.0,70.0,29.83,WSW,240,0.0,0.0,65,0.00,,---,0.00,VWS V14.01,2013-09-01 18:31:00,
2013-09-01 11:36:00,83.2,69.8,29.83,South,188,0.0,1.0,64,0.00,,---,0.00,VWS V14.01,2013-09-01 18:36:00,
2013-09-01 11:46:00,84.7,71.2,29.83,SSW,206,0.0,2.0,64,0.00,,---,0.00,VWS V14.01,2013-09-01 18:46:00,
2013-09-01 11:51:00,85.9,70.9,29.83,WSW,251,1.0,3.0,61,0.00,,---,0.00,VWS V14.01,2013-09-01 18:51:00,
2013-09-01 11:56:00,86.7,72.1,29.83,West,267,0.0,1.0,62,0.00,,---,0.00,VWS V14.01,2013-09-01 18:56:00,
2013-09-01 12:01:00,86.5,71.5,29.82,SSW,198,3.0,6.0,61,0.00,,---,0.00,VWS V14.01,2013-09-01 19:01:00,
2013-09-01 12:06:00,87.2,71.6,29.82,South,184,0.0,6.0,60,0.00,,---,0.00,VWS V14.01,2013-09-01 19:06:00,
2013-09-01 12:11:00,87.6,71.5,29.82,West,271,2.0,7.0,59,0.00,,---,0.00,VWS V14.01,2013-09-01 19:11:00,
2013-09-01 12:16:00,87.4,71.8,29.81,South,188,1.0,2.0,60,0.00,,---,0.00,VWS V14.01,2013-09-01 19:16:00,
2013-09-01 12:26:00,88.6,71.9,29.81,West,280,3.0,6.0,58,0.00,,---,0.00,VWS V14.01,2013-09-01 19:26:00,
2013-09-01 12:31:00,89.0,72.8,29.81,WNW,292,0.0,10.0,59,0.00,,---,0.00,VWS V14.01,2013-09-01 19:31:00,
2013-09-01 12:41:00,90.1,71.2,29.81,SW,229,0.0,7.0,54,0.00,,---,0.00,VWS V14.01,2013-09-01 19:41:00,
2013-09-01 12:46:00,89.9,71.6,29.80,SW,234,0.0,7.0,55,0.00,,---,0.00,VWS V14.01,2013-09-01 19:46:00,
2013-09-01 12:51:00,90.3,71.9,29.80,WNW,289,1.0,6.0,55,0.00,,---,0.00,VWS V14.01,2013-09-01 19:51:00,
2013-09-01 12:56:00,91.2,72.2,29.80,SW,217,0.0,6.0,54,0.00,,---,0.00,VWS V14.01,2013-09-01 19:56:00,
2013-09-01 13:06:00,89.9,72.1,29.80,West,268,5.0,6.0,56,0.00,,---,0.00,VWS V14.01,2013-09-01 20:06:00,
2013-09-01 13:16:00,88.6,71.9,29.80,SW,232,0.0,6.0,58,0.00,,---,0.00,VWS V14.01,2013-09-01 20:16:00,
2013-09-01 13:21:00,88.6,71.4,29.80,SW,217,2.0,10.0,57,0.00,,---,0.00,VWS V14.01,2013-09-01 20:21:00,
2013-09-01 13:26:00,88.2,71.6,29.80,WNW,287,0.0,10.0,58,0.00,,---,0.00,VWS V14.01,2013-09-01 20:26:00,
2013-09-01 13:36:00,88.6,71.4,29.79,South,191,2.0,5.0,57,0.00,,---,0.00,VWS V14.01,2013-09-01 20:36:00,
2013-09-01 13:41:00,88.4,72.3,29.79,SSW,202,2.0,11.0,59,0.00,,---,0.00,VWS V14.01,2013-09-01 20:41:00,
2013-09-01 13:46:00,88.6,72.4,29.79,WSW,241,2.0,9.0,59,0.00,,---,0.00,VWS V14.01,2013-09-01 20:46:00,
2013-09-01 13:56:00,89.0,72.8,29.79,West,264,0.0,11.0,59,0.00,,---,0.00,VWS V14.01,2013-09-01 20:56:00,
2013-09-01 14:01:00,89.7,72.4,29.78,SW,227,3.0,11.0,57,0.00,,---,0.00,VWS V14.01,2013-09-01 21:01:00,
2013-09-01 14:06:00,89.9,72.1,29.78,SW,230,0.0,12.0,56,0.00,,---,0.00,VWS V14.01,2013-09-01 21:06:00,
2013-09-01 14:16:00,91.0,72.6,29.78,SSW,198,0.0,11.0,55,0.00,,---,0.00,VWS V14.01,2013-09-01 21:16:00,
2013-09-01 14:21:00,91.0,72.6,29.78,SW,236,0.0,10.0,55,0.00,,---,0.00,VWS V14.01,2013-09-01 21:21:00,
2013-09-01 14:26:00,91.0,72.6,29.78,SW,227,2.0,11.0,55,0.00,,---,0.00,VWS V14.01,2013-09-01 21:26:00,
2013-09-01 14:36:00,90.7,72.3,29.78,SSW,192,0.0,10.0,55,0.00,,---,0.00,VWS V14.01,2013-09-01 21:36:00,
2013-09-01 14:46:00,90.5,71.6,29.78,WNW,295,1.0,13.0,54,0.00,,---,0.00,VWS V14.01,2013-09-01 21:46:00,
2013-09-01 14:51:00,89.7,71.4,29.78,SW,223,7.0,14.0,55,0.00,,---,0.00,VWS V14.01,2013-09-01 21:51:00,
2013-09-01 15:01:00,89.0,71.8,29.78,NW,316,0.0,13.0,57,0.00,,---,0.00,VWS V14.01,2013-09-01 22:01:00,
2013-09-01 15:06:00,89.3,72.1,29.78,West,272,4.0,12.0,57,0.00,,---,0.00,VWS V14.01,2013-09-01 22:06:00,
2013-09-01 15:11:00,89.5,72.3,29.78,West,263,7.0,11.0,57,0.00,,---,0.00,VWS V14.01,2013-09-01 22:11:00,
2013-09-01 15:16:00,89.5,71.7,29.77,WSW,251,0.0,14.0,56,0.00,,---,0.00,VWS V14.01,2013-09-01 22:16:00,
2013-09-01 15:21:00,89.3,72.1,29.77,SSW,199,3.0,13.0,57,0.00,,---,0.00,VWS V14.01,2013-09-01 22:21:00,
2013-09-01 15:26:00,89.3,72.1,29.77,WSW,257,2.0,17.0,57,0.00,,---,0.00,VWS V14.01,2013-09-01 22:26:00,
2013-09-01 15:36:00,89.9,72.1,29.77,SW,223,0.0,13.0,56,0.00,,---,0.00,VWS V14.01,2013-09-01 22:36:00,
2013-09-01 15:41:00,90.1,71.2,29.77,WSW,239,6.0,17.0,54,0.00,,---,0.00,VWS V14.01,2013-09-01 22:41:00,
2013-09-01 15:51:00,88.8,71.1,29.77,WSW,241,10.0,13.0,56,0.00,,---,0.00,VWS V14.01,2013-09-01 22:51:00,
2013-09-01 15:56:00,88.4,71.2,29.77,South,189,5.0,12.0,57,0.00,,---,0.00,VWS V14.01,2013-09-01 22:56:00,
2013-09-01 16:06:00,88.8,71.1,29.77,SSW,213,7.0,8.0,56,0.00,,---,0.00,VWS V14.01,2013-09-01 23:06:00,
2013-09-01 16:11:00,89.0,70.8,29.77,SSW,212,0.0,11.0,55,0.00,,---,0.00,VWS V14.01,2013-09-01 23:11:00,
2013-09-01 16:16:00,88.8,70.6,29.76,SW,233,8.0,11.0,55,0.00,,---,0.00,VWS V14.01,2013-09-01 23:16:00,
2013-09-01 16:26:00,88.6,69.8,29.76,WNW,285,8.0,13.0,54,0.00,,---,0.00,VWS V14.01,2013-09-01 23:26:00,
2013-09-01 16:36:00,88.4,69.1,29.76,West,277,7.0,14.0,53,0.00,,---,0.00,VWS V14.01,2013-09-01 23:36:00,
2013-09-01 16:46:00,87.8,69.6,29.76,WSW,248,6.0,13.0,55,0.00,,---,0.00,VWS V14.01,2013-09-01 23:46:00,
2013-09-01 16:56:00,87.2,71.1,29.76,SSW,212,4.0,13.0,59,0.00,,---,0.00,VWS V14.01,2013-09-01 23:56:00,
2013-09-01 17:06:00,86.5,71.0,29.75,WSW,240,0.0,8.0,60,0.00,,---,0.00,VWS V14.01,2013-09-02 00:06:00,
2013-09-01 17:16:00,86.5,71.0,29.76,SW,230,0.0,6.0,60,0.00,,---,0.00,VWS V14.01,2013-09-02 00:16:00,
2013-09-01 17:21:00,85.9,69.9,29.76,WSW,250,0.0,6.0,59,0.00,,---,0.00,VWS V14.01,2013-09-02 00:21:00,
2013-09-01 17:26:00,85.7,69.7,29.76,WSW,254,0.0,7.0,59,0.00,,---,0.00,VWS V14.01,2013-09-02 00:26:00,
2013-09-01 17:31:00,85.7,69.7,29.76,WSW,244,0.0,8.0,59,0.00,,---,0.00,VWS V14.01,2013-09-02 00:31:00,
2013-09-01 17:36:00,85.7,69.7,29.76,SW,232,5.0,8.0,59,0.00,,---,0.00,VWS V14.01,2013-09-02 00:36:00,
2013-09-01 17:41:00,85.7,68.7,29.76,SW,236,0.0,7.0,57,0.00,,---,0.00,VWS V14.01,2013-09-02 00:41:00,
2013-09-01 17:51:00,86.1,69.1,29.76,SW,232,10.0,10.0,57,0.00,,---,0.00,VWS V14.01,2013-09-02 00:51:00,
2013-09-01 17:56:00,86.3,68.8,29.76,WSW,251,5.0,10.0,56,0.00,,---,0.00,VWS V14.01,2013-09-02 00:56:00,
2013-09-01 18:01:00,86.3,68.8,29.76,WSW,241,0.0,8.0,56,0.00,,---,0.00,VWS V14.01,2013-09-02 01:01:00,
2013-09-01 18:06:00,86.3,68.8,29.76,West,260,7.0,7.0,56,0.00,,---,0.00,VWS V14.01,2013-09-02 01:06:00,
2013-09-01 18:11:00,86.1,68.6,29.76,West,260,0.0,11.0,56,0.00,,---,0.00,VWS V14.01,2013-09-02 01:11:00,
2013-09-01 18:16:00,85.9,68.4,29.76,South,189,1.0,7.0,56,0.00,,---,0.00,VWS V14.01,2013-09-02 01:16:00,
2013-09-01 18:21:00,85.7,68.7,29.76,SSW,205,0.0,6.0,57,0.00,,---,0.00,VWS V14.01,2013-09-02 01:21:00,
2013-09-01 18:31:00,85.7,68.7,29.76,South,171,0.0,0.0,57,0.00,,---,0.00,VWS V14.01,2013-09-02 01:31:00,
2013-09-01 18:36:00,85.3,68.3,29.76,South,171,0.0,0.0,57,0.00,,---,0.00,VWS V14.01,2013-09-02 01:36:00,
2013-09-01 18:41:00,84.9,68.5,29.76,South,171,0.0,0.0,58,0.00,,---,0.00,VWS V14.01,2013-09-02 01:41:00,
2013-09-01 18:46:00,84.1,68.2,29.77,South,171,0.0,0.0,59,0.00,,---,0.00,VWS V14.01,2013-09-02 01:46:00,
2013-09-01 18:51:00,83.6,68.3,29.77,South,171,0.0,0.0,60,0.00,,---,0.00,VWS V14.01,2013-09-02 01:51:00,
2013-09-01 18:56:00,83.0,68.2,29.77,South,171,0.0,0.0,61,0.00,,---,0.00,VWS V14.01,2013-09-02 01:56:00,
2013-09-01 19:01:00,82.2,67.9,29.78,South,171,0.0,0.0,62,0.00,,---,0.00,VWS V14.01,2013-09-02 02:01:00,
2013-09-01 19:11:00,81.1,67.8,29.78,SSW,210,0.0,0.0,64,0.00,,---,0.00,VWS V14.01,2013-09-02 02:11:00,
2013-09-01 19:16:00,80.5,67.7,29.78,SSW,210,0.0,0.0,65,0.00,,---,0.00,VWS V14.01,2013-09-02 02:16:00,
2013-09-01 19:21:00,80.1,67.7,29.78,SSW,210,0.0,0.0,66,0.00,,---,0.00,VWS V14.01,2013-09-02 02:21:00,
2013-09-01 19:31:00,79.0,67.6,29.78,SSW,210,0.0,0.0,68,0.00,,---,0.00,VWS V14.01,2013-09-02 02:31:00,
2013-09-01 19:36:00,78.5,67.1,29.78,SSW,210,0.0,0.0,68,0.00,,---,0.00,VWS V14.01,2013-09-02 02:36:00,
2013-09-01 19:41:00,78.1,67.1,29.78,SSW,210,0.0,0.0,69,0.00,,---,0.00,VWS V14.01,2013-09-02 02:41:00,
2013-09-01 19:51:00,77.6,67.1,29.79,SSW,210,0.0,0.0,70,0.00,,---,0.00,VWS V14.01,2013-09-02 02:51:00,
2013-09-01 20:01:00,76.8,67.1,29.79,SSW,210,0.0,0.0,72,0.00,,---,0.00,VWS V14.01,2013-09-02 03:01:00,
2013-09-01 20:11:00,76.0,66.7,29.79,SSW,210,0.0,0.0,73,0.00,,---,0.00,VWS V14.01,2013-09-02 03:11:00,
2013-09-01 20:16:00,75.6,66.7,29.79,SSW,210,0.0,0.0,74,0.00,,---,0.00,VWS V14.01,2013-09-02 03:16:00,
2013-09-01 20:26:00,74.9,66.4,29.79,SSW,210,0.0,0.0,75,0.00,,---,0.00,VWS V14.01,2013-09-02 03:26:00,
2013-09-01 20:36:00,74.0,66.3,29.80,SSW,210,0.0,0.0,77,0.00,,---,0.00,VWS V14.01,2013-09-02 03:36:00,
2013-09-01 20:46:00,73.5,66.6,29.80,SSW,210,0.0,0.0,79,0.00,,---,0.00,VWS V14.01,2013-09-02 03:46:00,
2013-09-01 20:51:00,73.3,66.4,29.80,SSW,210,0.0,0.0,79,0.00,,---,0.00,VWS V14.01,2013-09-02 03:51:00,
2013-09-01 20:56:00,73.0,66.1,29.80,SSW,210,0.0,0.0,79,0.00,,---,0.00,VWS V14.01,2013-09-02 03:56:00,
2013-09-01 21:01:00,72.8,66.3,29.81,SSW,210,0.0,0.0,80,0.00,,---,0.00,VWS V14.01,2013-09-02 04:01:00,
2013-09-01 21:06:00,72.7,66.2,29.81,SSW,210,0.0,0.0,80,0.00,,---,0.00,VWS V14.01,2013-09-02 04:06:00,
2013-09-01 21:11:00,72.7,66.2,29.81,SSW,210,0.0,0.0,80,0.00,,---,0.00,VWS V14.01,2013-09-02 04:11:00,
2013-09-01 21:21:00,72.3,66.2,29.81,SSW,210,0.0,0.0,81,0.00,,---,0.00,VWS V14.01,2013-09-02 04:21:00,
2013-09-01 21:26:00,72.3,66.2,29.81,SSW,210,0.0,0.0,81,0.00,,---,0.00,VWS V14.01,2013-09-02 04:26:00,
2013-09-01 21:31:00,72.1,65.9,29.81,SSW,210,0.0,0.0,81,0.00,,---,0.00,VWS V14.01,2013-09-02 04:31:00,
2013-09-01 21:41:00,72.0,66.2,29.81,SSW,210,0.0,0.0,82,0.00,,---,0.00,VWS V14.01,2013-09-02 04:41:00,
2013-09-01 21:46:00,72.0,66.2,29.81,SSW,210,0.0,0.0,82,0.00,,---,0.00,VWS V14.01,2013-09-02 04:46:00,
2013-09-01 21:51:00,71.8,66.0,29.81,SSW,210,0.0,0.0,82,0.00,,---,0.00,VWS V14.01,2013-09-02 04:51:00,
2013-09-01 21:56:00,71.8,66.0,29.81,SSW,210,0.0,0.0,82,0.00,,---,0.00,VWS V14.01,2013-09-02 04:56:00,
2013-09-01 22:01:00,71.6,65.8,29.81,SSW,210,0.0,0.0,82,0.00,,---,0.00,VWS V14.01,2013-09-02 05:01:00,
2013-09-01 22:06:00,71.6,65.8,29.81,SSW,210,0.0,0.0,82,0.00,,---,0.00,VWS V14.01,2013-09-02 05:06:00,
2013-09-01 22:11:00,71.5,65.7,29.81,SSW,210,0.0,0.0,82,0.00,,---,0.00,VWS V14.01,2013-09-02 05:11:00,
2013-09-01 22:16:00,71.3,65.5,29.81,SSW,210,0.0,0.0,82,0.00,,---,0.00,VWS V14.01,2013-09-02 05:16:00,
2013-09-01 22:21:00,71.3,65.5,29.81,SSW,210,0.0,0.0,82,0.00,,---,0.00,VWS V14.01,2013-09-02 05:21:00,
2013-09-01 22:31:00,71.1,65.3,29.81,SSW,210,0.0,0.0,82,0.00,,---,0.00,VWS V14.01,2013-09-02 05:31:00,
2013-09-01 22:36:00,70.9,65.1,29.81,SSW,210,0.0,0.0,82,0.00,,---,0.00,VWS V14.01,2013-09-02 05:36:00,
2013-09-01 22:41:00,70.9,65.1,29.81,SSW,210,0.0,0.0,82,0.00,,---,0.00,VWS V14.01,2013-09-02 05:41:00,
2013-09-01 22:51:00,70.6,64.8,29.81,SSW,210,0.0,0.0,82,0.00,,---,0.00,VWS V14.01,2013-09-02 05:51:00,
2013-09-01 22:56:00,70.6,65.2,29.81,SSW,210,0.0,0.0,83,0.00,,---,0.00,VWS V14.01,2013-09-02 05:56:00,
2013-09-01 23:01:00,70.4,65.0,29.81,SSW,210,0.0,0.0,83,0.00,,---,0.00,VWS V14.01,2013-09-02 06:01:00,
2013-09-01 23:06:00,70.4,65.0,29.81,SSW,210,0.0,0.0,83,0.00,,---,0.00,VWS V14.01,2013-09-02 06:06:00,
2013-09-01 23:16:00,70.3,64.9,29.81,SSW,210,0.0,0.0,83,0.00,,---,0.00,VWS V14.01,2013-09-02 06:16:00,
2013-09-01 23:21:00,70.1,64.7,29.81,SSW,210,0.0,0.0,83,0.00,,---,0.00,VWS V14.01,2013-09-02 06:21:00,
2013-09-01 23:31:00,69.9,64.5,29.81,SSW,210,0.0,0.0,83,0.00,,---,0.00,VWS V14.01,2013-09-02 06:31:00,
2013-09-01 23:36:00,69.8,64.4,29.81,SSW,210,0.0,0.0,83,0.00,,---,0.00,VWS V14.01,2013-09-02 06:36:00,
2013-09-01 23:46:00,69.6,64.2,29.81,SSW,210,0.0,0.0,83,0.00,,---,0.00,VWS V14.01,2013-09-02 06:46:00,
2013-09-01 23:51:00,69.4,64.4,29.81,SSW,210,0.0,0.0,84,0.00,,---,0.00,VWS V14.01,2013-09-02 06:51:00,
2013-09-01 23:56:00,69.4,64.4,29.81,SSW,210,0.0,0.0,84,0.00,,---,0.00,VWS V14.01,2013-09-02 06:56:00,